Terminal Aerodrome Forecast
Issued by NWS Cleveland, OH

Home | Current Version | Previous Version | Graphics & Text | Print | Product List | Glossary Off
Versions: 1 2 3 4 5 6 7 8 9 10 11 12 13 14 15 16 17 18 19 20 21 22 23 24 25 26

000
FTUS41 KCLE 250600 CCA
TAFCLE
TAF COR
KCLE 250638Z 2507/2612 08008KT P6SM OVC045
      TEMPO 2507/2511 -RA
     FM251500 08011KT P6SM BKN100
     FM251800 04012KT P6SM BKN100
     FM260200 03008KT P6SM SCT100 BKN250=

USA.gov is the U.S. government's official web portal to all federal, state and local government web resources and services.